East Smethport, Pennsylvania
Current Conditions -  °F | °C
As of 3:53 PM on Friday 19 Dec 2014 (Local Time) from KBFD Reporting Station
Overcast Overcast  
Wind Chill: 12°   Ceiling: 700
Heat Index: 23°   Visibility: 9mi
Dew Point: 19°   Wind: 10mph
Humidity: 85%   Direction: 290°WNW
Pressure: 30.1"   Gusts: NA
Location:  41.81°N, 78.42°W
Report Text: KBFD 192053Z AUTO 29009KT 9SM OVC007 M05/M07 A3010 RMK AO2 SLP219 T10501072 53011
Loading
Personal Weather Stations






























Interactive Weather Map New forecast layout! Learn more

10-Day Weather Forecast

Advertisements
Track Severe Weather on mobile